Time;durP1;ratioP1;P1;durP2;ratioP2;P2;SDS_P1;SDS_P2;PMS_P1;PMS_P2;Temp;Humidity;BMP_temperature;BMP_pressure;BME280_temperature;BME280_humidity;BME280_pressure;Samples;Min_cycle;Max_cycle;Signal;HPM_P1;HPM_P2
2022/10/21 00:02:03;;;;;;;15.30;13.50;;;14.10;89.50;;;16.67;64.63;100994.97;4751927;30;20216;-59
2022/10/21 00:04:31;;;;;;;14.70;13.23;;;14.10;90.00;;;16.64;64.89;100998.88;4757662;30;20540;-62
2022/10/21 00:07:00;;;;;;;15.07;13.30;;;14.10;89.40;;;16.68;64.69;100996.63;4756150;30;20209;-60
2022/10/21 00:09:27;;;;;;;14.80;13.37;;;14.10;89.40;;;16.71;64.73;100988.25;4745145;30;20209;-60
2022/10/21 00:11:54;;;;;;;15.80;13.23;;;14.10;89.40;;;16.69;64.65;100998.25;4734379;30;20288;-60
2022/10/21 00:14:21;;;;;;;14.77;12.40;;;14.20;89.40;;;16.75;64.71;100998.25;4746379;30;20622;-62
2022/10/21 00:16:47;;;;;;;16.53;13.07;;;14.10;89.30;;;16.81;64.34;100993.91;4769211;30;20324;-61
2022/10/21 00:19:14;;;;;;;15.80;13.73;;;14.20;89.50;;;16.84;64.35;100998.81;4752492;30;20266;-61
2022/10/21 00:21:41;;;;;;;15.37;13.13;;;14.20;89.40;;;16.85;64.68;100989.84;4751700;30;20281;-62
2022/10/21 00:24:10;;;;;;;14.77;12.83;;;14.20;89.30;;;16.88;64.16;100982.25;4754628;30;20212;-61
2022/10/21 00:26:37;;;;;;;16.97;13.23;;;14.20;89.20;;;16.92;64.34;100980.00;4762331;30;20239;-59
2022/10/21 00:29:04;;;;;;;14.77;13.37;;;14.20;89.20;;;16.91;64.37;100978.34;4759745;30;20224;-61
2022/10/21 00:31:33;;;;;;;14.27;12.87;;;14.20;89.10;;;16.87;64.14;100969.16;4752055;30;20224;-62
2022/10/21 00:34:00;;;;;;;13.97;12.47;;;14.20;89.10;;;16.88;64.37;100966.28;4753997;30;20205;-60
2022/10/21 00:36:27;;;;;;;14.87;13.47;;;14.30;89.20;;;16.91;64.30;100971.19;4770146;30;20203;-60
2022/10/21 00:38:56;;;;;;;13.83;12.43;;;14.30;89.40;;;16.94;64.15;100959.31;4753835;30;20565;-62
2022/10/21 00:41:24;;;;;;;14.53;13.13;;;14.30;89.30;;;16.99;64.40;100972.81;4751765;30;20255;-61
2022/10/21 00:43:56;;;;;;;14.17;12.80;;;14.30;89.40;;;17.00;64.29;100963.78;4752617;30;21020;-60
2022/10/21 00:46:34;;;;;;;16.43;13.83;;;14.40;89.30;;;17.01;64.10;100973.41;4770263;30;20184;-62
2022/10/21 00:49:07;;;;;;;14.93;12.77;;;14.40;89.30;;;17.03;64.00;100958.06;4753470;30;20220;-62
2022/10/21 00:51:35;;;;;;;15.20;13.67;;;14.40;89.20;;;17.02;63.90;100956.41;4752043;30;20720;-61
2022/10/21 00:54:05;;;;;;;14.83;13.17;;;14.40;89.10;;;17.02;63.98;100955.63;4753700;30;20258;-60
2022/10/21 00:56:35;;;;;;;15.13;12.80;;;14.40;89.10;;;16.97;64.13;100958.91;4770081;30;20230;-61
2022/10/21 00:59:05;;;;;;;14.27;12.67;;;14.40;89.30;;;16.95;64.20;100955.63;4753306;30;20201;-60
2022/10/21 01:01:32;;;;;;;18.93;13.93;;;14.40;89.00;;;16.95;64.37;100949.50;4750797;30;20243;-60
2022/10/21 01:04:02;;;;;;;15.73;14.03;;;14.40;89.00;;;16.94;64.41;100940.72;4753028;30;20212;-60
2022/10/21 01:06:31;;;;;;;17.07;13.47;;;14.40;88.90;;;16.95;64.34;100939.66;4770248;30;20295;-61
2022/10/21 01:09:00;;;;;;;17.00;13.77;;;14.40;88.90;;;16.95;63.97;100934.34;4753846;30;20233;-59
2022/10/21 01:11:35;;;;;;;15.03;13.53;;;14.40;88.80;;;16.89;64.15;100937.84;4751936;30;20283;-59
2022/10/21 01:14:36;;;;;;;14.83;13.33;;;14.30;88.70;;;16.78;64.60;100931.34;4752682;30;20554;-60
2022/10/21 01:17:19;;;;;;;14.30;13.00;;;14.30;88.80;;;16.75;64.56;100933.63;4769559;30;20204;-61
2022/10/21 01:20:30;;;;;;;14.90;13.03;;;14.30;88.80;;;16.69;64.59;100919.31;4757974;30;20742;-60
2022/10/21 01:23:45;;;;;;;15.70;14.10;;;14.30;89.00;;;16.63;64.76;100916.69;4761360;30;20197;-57
2022/10/21 01:27:04;;;;;;;15.73;14.13;;;14.20;89.10;;;16.62;64.91;100913.22;4762107;30;20212;-62
2022/10/21 01:30:09;;;;;;;15.87;13.93;;;14.30;89.20;;;16.60;64.83;100909.13;4758101;30;20240;-60
2022/10/21 01:33:07;;;;;;;15.07;13.40;;;14.20;89.10;;;16.57;65.10;100909.56;4752699;30;20224;-59
2022/10/21 01:35:48;;;;;;;15.50;13.93;;;14.20;89.20;;;16.60;65.17;100898.50;4764783;30;20226;-62
2022/10/21 01:38:24;;;;;;;16.20;14.37;;;14.20;89.30;;;16.64;64.61;100902.38;4761035;30;20192;-61
2022/10/21 01:40:59;;;;;;;15.70;14.10;;;14.10;89.20;;;16.68;64.82;100906.25;4738616;30;20258;-60
2022/10/21 01:43:37;;;;;;;15.37;13.87;;;14.10;89.40;;;16.68;64.79;100911.56;4755304;30;20210;-58
2022/10/21 01:46:13;;;;;;;16.20;14.10;;;14.10;89.50;;;16.67;65.02;100907.25;4770069;30;20208;-61
2022/10/21 01:48:50;;;;;;;15.57;14.00;;;14.10;89.60;;;16.68;64.78;100900.94;4759826;30;20235;-61
2022/10/21 01:51:21;;;;;;;15.00;13.57;;;14.10;89.60;;;16.73;65.04;100903.78;4738620;30;20235;-62
2022/10/21 01:53:54;;;;;;;16.23;14.43;;;14.10;89.70;;;16.73;65.04;100898.47;4754281;30;20189;-61
2022/10/21 01:56:22;;;;;;;17.63;14.47;;;14.20;89.90;;;16.74;64.95;100897.41;4771811;30;20686;-61
2022/10/21 01:58:52;;;;;;;16.17;14.47;;;14.20;89.70;;;16.73;64.62;100893.97;4756529;30;20225;-60
2022/10/21 02:01:21;;;;;;;15.33;13.63;;;14.20;89.80;;;16.75;64.97;100883.13;4755115;30;20235;-62
2022/10/21 02:03:57;;;;;;;16.03;14.27;;;14.10;89.70;;;16.76;64.66;100879.41;4754716;30;20218;-61
2022/10/21 02:06:24;;;;;;;15.23;13.73;;;14.10;89.80;;;16.74;64.76;100884.13;4737256;30;20246;-61
2022/10/21 02:08:52;;;;;;;15.13;13.70;;;14.10;89.70;;;16.72;64.89;100876.38;4750091;30;20725;-61
2022/10/21 02:11:19;;;;;;;16.00;14.30;;;14.20;89.80;;;16.74;65.07;100865.50;4754031;30;20279;-61
2022/10/21 02:13:56;;;;;;;17.90;14.83;;;14.10;89.80;;;16.72;65.12;100864.91;4754593;30;20197;-61
2022/10/21 02:16:30;;;;;;;17.17;14.63;;;14.10;89.90;;;16.69;65.18;100852.03;4771770;30;20215;-62
2022/10/21 02:19:00;;;;;;;16.10;14.33;;;14.10;89.90;;;16.65;65.30;100859.63;4756989;30;20193;-61
2022/10/21 02:21:35;;;;;;;15.87;14.07;;;14.10;90.00;;;16.66;65.48;100849.81;4735174;30;20271;-59
2022/10/21 02:24:12;;;;;;;16.77;14.50;;;14.10;90.00;;;16.64;65.37;100846.56;4736468;30;20573;-59
2022/10/21 02:26:39;;;;;;;16.17;14.47;;;14.10;90.10;;;16.65;65.23;100848.19;4772163;30;20553;-62
2022/10/21 02:29:06;;;;;;;17.40;14.13;;;14.10;90.10;;;16.65;65.28;100837.56;4765755;30;20689;-61
2022/10/21 02:31:56;;;;;;;15.33;13.83;;;14.10;90.10;;;16.62;65.61;100832.66;4753649;30;20224;-61
2022/10/21 02:34:37;;;;;;;17.07;15.27;;;14.10;90.20;;;16.62;65.53;100824.69;4753788;30;20209;-61
2022/10/21 02:37:19;;;;;;;18.03;14.30;;;14.10;90.20;;;16.63;65.34;100823.66;4754186;30;20201;-61
2022/10/21 02:39:55;;;;;;;14.40;12.30;;;14.10;90.20;;;16.66;65.08;100820.59;4753906;30;20204;-59
2022/10/21 02:42:30;;;;;;;16.50;13.57;;;14.10;90.20;;;16.71;65.29;100823.44;4754236;30;20239;-61
2022/10/21 02:44:59;;;;;;;16.13;14.43;;;14.10;90.50;;;16.72;65.35;100827.69;4753362;30;20585;-62
2022/10/21 02:47:26;;;;;;;15.60;14.00;;;14.10;90.20;;;16.73;65.04;100824.84;4767290;30;20246;-62
2022/10/21 02:49:55;;;;;;;19.27;13.87;;;14.10;90.20;;;16.74;65.04;100818.50;4753510;30;20225;-60
2022/10/21 02:52:22;;;;;;;15.40;13.80;;;14.10;90.20;;;16.75;65.32;100827.28;4753679;30;20275;-61
2022/10/21 02:54:49;;;;;;;15.17;13.47;;;14.10;90.20;;;16.73;65.10;100824.84;4752404;30;20612;-61
2022/10/21 02:57:16;;;;;;;18.50;14.73;;;14.10;90.20;;;16.74;64.98;100815.00;4736432;30;20205;-60
2022/10/21 02:59:42;;;;;;;16.17;13.80;;;14.10;90.20;;;16.73;65.20;100821.38;4738678;30;20204;-60
2022/10/21 03:02:09;;;;;;;16.33;14.57;;;14.10;90.30;;;16.70;65.47;100821.78;4753225;30;20221;-62
2022/10/21 03:04:37;;;;;;;15.03;13.53;;;14.10;90.30;;;16.69;65.52;100817.47;4757770;30;20243;-61
2022/10/21 03:07:05;;;;;;;16.07;14.37;;;14.10;90.20;;;16.67;65.52;100815.06;4736897;30;20213;-61
2022/10/21 03:09:32;;;;;;;15.90;14.20;;;14.10;90.30;;;16.70;65.37;100824.44;4736749;30;20326;-61
2022/10/21 03:11:59;;;;;;;16.20;14.13;;;14.10;90.30;;;16.70;65.38;100803.19;4753266;30;20282;-60
2022/10/21 03:14:26;;;;;;;17.50;15.70;;;14.10;90.30;;;16.70;65.67;100797.88;4757889;30;20201;-61
2022/10/21 03:16:53;;;;;;;17.23;15.37;;;14.10;90.40;;;16.71;65.61;100794.97;4739369;30;20205;-62
2022/10/21 03:19:20;;;;;;;17.97;14.73;;;14.10;90.40;;;16.69;65.87;100793.56;4734894;30;20324;-60
2022/10/21 03:21:47;;;;;;;16.80;15.03;;;14.10;90.50;;;16.69;65.61;100785.59;4751883;30;20252;-62
2022/10/21 03:24:15;;;;;;;17.40;14.37;;;14.10;90.40;;;16.70;65.68;100787.22;4753646;30;20207;-62
2022/10/21 03:26:55;;;;;;;16.23;14.53;;;14.10;90.50;;;16.72;65.69;100791.31;4735550;30;20284;-61
2022/10/21 03:29:22;;;;;;;18.63;15.27;;;14.10;90.40;;;16.74;65.48;100791.09;4761015;30;20220;-62
2022/10/21 03:31:49;;;;;;;16.30;14.50;;;14.10;90.50;;;16.75;65.51;100790.88;4752464;30;20228;-62
2022/10/21 03:34:16;;;;;;;16.60;13.93;;;14.10;90.50;;;16.77;65.60;100793.31;4757536;30;20657;-61
2022/10/21 03:36:43;;;;;;;16.10;13.80;;;14.10;90.50;;;16.80;65.59;100798.22;4752218;30;20205;-62
2022/10/21 03:39:11;;;;;;;16.00;13.87;;;14.10;90.50;;;16.83;65.56;100793.28;4752506;30;21281;-61
2022/10/21 03:41:39;;;;;;;18.53;15.00;;;14.10;90.50;;;16.85;65.11;100796.53;4753018;30;20224;-61
2022/10/21 03:44:07;;;;;;;17.53;14.90;;;14.20;90.50;;;16.85;65.20;100790.44;4756240;30;20204;-60
2022/10/21 03:46:33;;;;;;;16.73;13.93;;;14.20;90.50;;;16.85;65.29;100793.09;4739381;30;20209;-61
2022/10/21 03:49:00;;;;;;;16.13;14.20;;;14.10;90.40;;;16.86;65.37;100794.69;4735102;30;20228;-62
2022/10/21 03:51:31;;;;;;;19.83;15.57;;;14.20;90.50;;;16.88;65.22;100793.44;4749852;30;20278;-60
2022/10/21 03:53:58;;;;;;;18.77;15.37;;;14.20;90.50;;;16.92;65.25;100796.50;4754711;30;20208;-61
2022/10/21 03:56:26;;;;;;;18.40;15.73;;;14.20;90.50;;;16.91;65.55;100786.91;4755645;30;20741;-61
2022/10/21 03:58:54;;;;;;;16.73;14.93;;;14.20;90.90;;;16.91;65.42;100784.25;4752534;30;20192;-60
2022/10/21 04:01:25;;;;;;;16.33;14.63;;;14.20;90.50;;;16.91;65.42;100784.25;4752070;30;20229;-60
2022/10/21 04:03:52;;;;;;;21.67;16.20;;;14.30;90.60;;;16.88;66.01;100782.00;4753631;30;20291;-60
2022/10/21 04:06:19;;;;;;;17.10;14.03;;;14.20;90.60;;;16.87;65.76;100777.72;4756290;30;20208;-61
2022/10/21 04:08:47;;;;;;;18.27;14.40;;;14.20;90.60;;;16.89;65.84;100778.31;4755730;30;20235;-62
2022/10/21 04:11:14;;;;;;;20.33;16.70;;;14.30;90.70;;;16.90;65.78;100772.00;4755814;30;20628;-61
2022/10/21 04:13:41;;;;;;;19.07;14.93;;;14.30;90.70;;;16.91;66.04;100768.28;4754034;30;20208;-61
2022/10/21 04:16:15;;;;;;;18.20;14.67;;;14.30;90.70;;;16.93;65.65;100768.88;4757343;30;20239;-59
2022/10/21 04:18:42;;;;;;;17.20;15.40;;;14.30;90.80;;;16.96;65.95;100757.00;4752594;30;20546;-61
2022/10/21 04:21:09;;;;;;;19.17;15.40;;;14.30;90.80;;;16.97;65.77;100746.16;4751885;30;20228;-61
2022/10/21 04:23:36;;;;;;;16.00;13.70;;;14.30;90.80;;;16.97;65.95;100751.47;4753281;30;20251;-59
2022/10/21 04:26:05;;;;;;;18.07;14.77;;;14.30;90.80;;;17.01;65.94;100750.00;4757353;30;20205;-61
2022/10/21 04:28:33;;;;;;;20.43;16.00;;;14.40;90.90;;;17.03;65.84;100745.28;4758900;30;20239;-60
2022/10/21 04:31:00;;;;;;;18.67;15.33;;;14.40;90.90;;;17.06;65.74;100749.38;4757399;30;20698;-62
2022/10/21 04:33:29;;;;;;;14.60;13.07;;;14.40;90.90;;;17.09;65.76;100755.03;4753593;30;20678;-61
2022/10/21 04:35:57;;;;;;;19.77;16.97;;;14.40;90.90;;;17.11;65.94;100750.34;4759034;30;20223;-59
2022/10/21 04:38:26;;;;;;;17.23;14.87;;;14.40;90.90;;;17.15;65.71;100748.88;4752341;30;20201;-58
2022/10/21 04:40:57;;;;;;;17.17;15.07;;;14.40;90.90;;;17.17;65.47;100756.63;4751224;30;20225;-62
2022/10/21 04:43:25;;;;;;;18.10;14.20;;;14.50;90.90;;;17.20;65.63;100759.69;4752965;30;20227;-62
2022/10/21 04:45:53;;;;;;;18.77;15.33;;;14.50;90.90;;;17.23;65.43;100761.09;4750915;30;20213;-61
2022/10/21 04:48:21;;;;;;;18.03;15.37;;;14.50;90.90;;;17.23;65.58;100761.91;4748380;30;20239;-61
2022/10/21 04:50:50;;;;;;;19.60;14.43;;;14.50;90.80;;;17.26;65.19;100756.16;4748654;30;20232;-58
2022/10/21 04:53:18;;;;;;;17.33;14.13;;;14.50;90.80;;;17.30;65.43;100762.69;4739423;30;20201;-59
2022/10/21 04:55:49;;;;;;;20.27;14.87;;;14.60;90.80;;;17.33;65.06;100761.44;4763134;30;20239;-60
2022/10/21 04:58:16;;;;;;;17.67;14.40;;;14.60;90.80;;;17.36;65.25;100753.00;4755706;30;20662;-60
2022/10/21 05:00:48;;;;;;;16.50;14.83;;;14.60;90.80;;;17.36;65.38;100748.50;4754933;30;20228;-60
2022/10/21 05:03:15;;;;;;;17.37;14.47;;;14.60;90.80;;;17.38;65.46;100750.91;4755768;30;20205;-61
2022/10/21 05:05:42;;;;;;;17.27;15.37;;;14.60;90.70;;;17.38;64.97;100754.41;4750014;30;20231;-62
2022/10/21 05:08:11;;;;;;;16.30;13.83;;;14.70;90.80;;;17.43;65.34;100748.41;4756041;30;20603;-61
2022/10/21 05:10:38;;;;;;;17.77;15.23;;;14.70;90.80;;;17.48;65.25;100748.59;4754554;30;20237;-59
2022/10/21 05:13:05;;;;;;;18.23;15.43;;;14.70;90.80;;;17.51;65.13;100749.00;4755426;30;20209;-61
2022/10/21 05:15:32;;;;;;;19.77;15.20;;;14.70;90.80;;;17.53;65.02;100746.94;4748856;30;20299;-59
2022/10/21 05:17:59;;;;;;;17.23;15.03;;;14.80;90.80;;;17.54;65.09;100750.41;4755369;30;20201;-62
2022/10/21 05:20:27;;;;;;;17.27;14.67;;;14.80;90.70;;;17.56;65.06;100746.50;4753529;30;20201;-62
2022/10/21 05:22:54;;;;;;;17.67;13.77;;;14.80;90.70;;;17.62;65.09;100728.00;4755016;30;20216;-61
2022/10/21 05:25:22;;;;;;;17.10;14.73;;;14.80;90.70;;;17.59;65.01;100714.09;4763760;30;20217;-60
2022/10/21 05:27:50;;;;;;;16.37;14.03;;;14.90;90.60;;;17.57;65.04;100697.53;4756192;30;20204;-62
2022/10/21 05:30:17;;;;;;;16.37;13.80;;;14.90;90.60;;;17.54;64.95;100694.53;4768360;30;20282;-59
2022/10/21 05:32:44;;;;;;;20.90;14.20;;;14.90;90.50;;;17.55;64.95;100688.16;4771447;30;20211;-61
2022/10/21 05:35:11;;;;;;;17.87;14.63;;;14.90;90.50;;;17.53;64.97;100691.03;4767853;30;20212;-60
2022/10/21 05:37:38;;;;;;;18.23;13.63;;;14.90;90.50;;;17.55;65.10;100699.63;4753317;30;20227;-62
2022/10/21 05:40:07;;;;;;;14.93;13.33;;;14.90;90.50;;;17.58;64.90;100698.34;4754258;30;20225;-61
2022/10/21 05:42:35;;;;;;;18.70;15.30;;;14.90;90.60;;;17.59;65.00;100703.44;4753525;30;20670;-62
2022/10/21 05:45:04;;;;;;;30.87;21.57;;;14.90;90.60;;;17.62;64.97;100704.03;4764101;30;20208;-62
2022/10/21 05:47:31;;;;;;;16.47;13.63;;;14.90;90.60;;;17.64;64.95;100704.66;4754747;30;20264;-61
2022/10/21 05:49:58;;;;;;;17.60;14.47;;;14.90;90.60;;;17.67;65.01;100704.19;4753868;30;20232;-62
2022/10/21 05:52:25;;;;;;;18.20;15.37;;;14.90;90.60;;;17.70;64.87;100709.09;4753994;30;20722;-61
2022/10/21 05:54:52;;;;;;;15.07;13.47;;;14.90;90.70;;;17.68;64.93;100703.16;4754057;30;20216;-60
2022/10/21 05:57:19;;;;;;;16.90;13.97;;;15.00;90.70;;;17.72;64.99;100701.69;4754295;30;20220;-62
2022/10/21 05:59:47;;;;;;;16.03;13.37;;;15.00;90.70;;;17.75;64.82;100701.25;4754479;30;20324;-61
2022/10/21 06:02:15;;;;;;;20.27;14.53;;;15.00;90.70;;;17.76;64.95;100700.22;4752816;30;20229;-62
2022/10/21 06:04:42;;;;;;;17.90;15.03;;;15.00;90.70;;;17.78;64.97;100708.81;4763843;30;20215;-58
2022/10/21 06:07:09;;;;;;;16.97;14.10;;;15.00;90.70;;;17.76;64.97;100705.56;4754139;30;20243;-62
2022/10/21 06:09:36;;;;;;;16.60;14.53;;;15.00;90.60;;;17.76;64.94;100711.66;4754092;30;20258;-61
2022/10/21 06:12:05;;;;;;;16.43;13.50;;;15.10;90.70;;;17.78;65.00;100706.94;4753329;30;20334;-62
2022/10/21 06:14:35;;;;;;;17.90;15.00;;;15.10;90.60;;;17.79;64.97;100710.41;4762081;30;20623;-62
2022/10/21 06:17:03;;;;;;;15.30;13.73;;;15.10;90.70;;;17.78;64.98;100716.78;4754323;30;20220;-61
2022/10/21 06:19:31;;;;;;;16.27;14.13;;;15.10;90.60;;;17.74;65.03;100715.59;4754306;30;20218;-62
2022/10/21 06:21:58;;;;;;;18.93;14.90;;;15.10;90.60;;;17.73;65.15;100724.63;4753470;30;20228;-60
2022/10/21 06:24:25;;;;;;;16.67;13.30;;;15.10;90.60;;;17.73;65.15;100719.31;4755991;30;20770;-62
2022/10/21 06:26:52;;;;;;;18.00;14.00;;;15.10;90.60;;;17.73;65.16;100721.97;4755592;30;20707;-61
2022/10/21 06:29:19;;;;;;;16.60;14.73;;;15.10;90.60;;;17.71;65.04;100718.72;4766980;30;20251;-62
2022/10/21 06:31:46;;;;;;;16.63;14.27;;;15.10;90.60;;;17.69;65.29;100720.75;4756716;30;20373;-62
2022/10/21 06:34:14;;;;;;;18.83;15.43;;;15.00;90.60;;;17.69;65.08;100710.09;4760086;30;20204;-62
2022/10/21 06:36:41;;;;;;;23.93;18.53;;;15.00;90.60;;;17.67;65.29;100720.97;4751248;30;20214;-62
2022/10/21 06:39:08;;;;;;;16.40;14.17;;;15.00;90.60;;;17.70;65.10;100725.06;4747770;30;20208;-61
2022/10/21 06:41:35;;;;;;;17.53;14.17;;;15.00;90.60;;;17.72;65.06;100723.81;4754911;30;20228;-62
2022/10/21 06:44:02;;;;;;;20.97;14.73;;;15.00;90.60;;;17.75;65.01;100733.19;4760112;30;20272;-62
2022/10/21 06:46:29;;;;;;;17.27;14.83;;;15.00;90.60;;;17.77;64.73;100731.13;4750225;30;20217;-63
2022/10/21 06:48:56;;;;;;;17.73;14.83;;;15.00;90.60;;;17.77;64.97;100736.44;4737776;30;20251;-62
2022/10/21 06:51:25;;;;;;;15.83;13.53;;;15.00;90.60;;;17.78;64.92;100740.75;4745614;30;20685;-62
2022/10/21 06:53:54;;;;;;;14.80;13.30;;;15.00;90.60;;;17.79;64.76;100742.38;4756061;30;20215;-61
2022/10/21 06:56:24;;;;;;;24.37;15.57;;;15.10;90.60;;;17.81;64.65;100745.63;4760173;30;20212;-60
2022/10/21 06:58:51;;;;;;;20.43;14.80;;;15.10;90.60;;;17.80;64.81;100744.00;4754418;30;20205;-61
2022/10/21 07:01:22;;;;;;;14.93;13.20;;;15.10;90.60;;;17.79;64.71;100745.84;4755350;30;20220;-61
2022/10/21 07:04:08;;;;;;;15.67;12.40;;;15.10;90.50;;;17.80;64.71;100746.66;4760304;30;20196;-61
2022/10/21 07:06:37;;;;;;;16.90;14.17;;;15.10;90.60;;;17.83;64.53;100748.91;4766781;30;20211;-61
2022/10/21 07:09:05;;;;;;;18.40;14.20;;;15.10;90.60;;;17.85;64.51;100747.59;4771775;30;20607;-61
2022/10/21 07:11:32;;;;;;;19.57;15.43;;;15.10;90.50;;;17.87;64.44;100752.72;4759327;30;20236;-61
2022/10/21 07:14:00;;;;;;;16.10;14.40;;;15.10;90.50;;;17.89;64.70;100754.13;4756144;30;20208;-60
2022/10/21 07:16:30;;;;;;;17.23;14.60;;;15.10;90.50;;;17.87;64.47;100752.72;4760803;30;20320;-60
2022/10/21 07:18:58;;;;;;;17.13;14.87;;;15.10;90.40;;;17.87;64.54;100760.72;4753870;30;20193;-60
2022/10/21 07:21:29;;;;;;;15.63;14.03;;;15.10;90.40;;;17.86;64.41;100762.56;4753687;30;20304;-60
2022/10/21 07:23:59;;;;;;;15.50;13.90;;;15.20;90.40;;;17.88;64.40;100765.00;4754665;30;20232;-63
2022/10/21 07:26:28;;;;;;;15.70;13.80;;;15.20;90.40;;;17.89;64.45;100774.63;4760675;30;20214;-61
2022/10/21 07:28:57;;;;;;;15.13;13.33;;;15.20;90.40;;;17.88;64.37;100768.47;4762813;30;20208;-61
2022/10/21 07:31:26;;;;;;;19.33;14.50;;;15.20;90.40;;;17.87;64.51;100760.72;4760323;30;20286;-62
2022/10/21 07:33:53;;;;;;;15.40;13.73;;;15.20;90.30;;;17.89;64.48;100771.97;4754328;30;20212;-60
2022/10/21 07:36:24;;;;;;;15.77;14.13;;;15.20;90.40;;;17.89;64.31;100766.63;4760651;30;20258;-60
2022/10/21 07:38:54;;;;;;;15.03;13.43;;;15.20;90.30;;;17.90;64.41;100769.06;4736131;30;20200;-62
2022/10/21 07:41:25;;;;;;;16.97;13.43;;;15.20;90.30;;;17.94;64.50;100764.13;4752330;30;20223;-60
2022/10/21 07:43:53;;;;;;;20.43;14.60;;;15.20;90.40;;;17.93;64.51;100767.81;4753658;30;20390;-60
2022/10/21 07:46:21;;;;;;;16.90;14.27;;;15.20;90.40;;;17.93;64.65;100775.81;4761736;30;20209;-63
2022/10/21 07:48:49;;;;;;;16.37;13.60;;;15.30;90.50;;;17.94;64.68;100775.59;4751437;30;20246;-62
2022/10/21 07:51:19;;;;;;;18.93;14.33;;;15.30;90.50;;;17.90;64.80;100762.94;4751533;30;20232;-62
2022/10/21 07:53:49;;;;;;;16.47;14.07;;;15.30;90.50;;;17.90;64.92;100768.28;4752747;30;20242;-61
2022/10/21 07:56:19;;;;;;;15.17;13.57;;;15.30;90.50;;;17.97;64.88;100769.03;4735272;30;20663;-60
2022/10/21 07:58:49;;;;;;;19.17;13.80;;;15.30;90.50;;;18.06;64.76;100767.69;4748502;30;20615;-60
2022/10/21 08:01:18;;;;;;;16.07;14.27;;;15.40;90.60;;;18.11;64.88;100768.63;4751014;30;20216;-60
2022/10/21 08:03:47;;;;;;;17.03;14.80;;;15.40;90.70;;;18.16;64.80;100773.31;4752827;30;20570;-60
2022/10/21 08:06:16;;;;;;;16.10;14.13;;;15.50;90.70;;;18.26;64.72;100770.91;4735095;30;20683;-60
2022/10/21 08:08:44;;;;;;;14.93;13.33;;;15.50;90.70;;;18.29;64.39;100767.81;4735676;30;20270;-61
2022/10/21 08:11:18;;;;;;;15.70;13.80;;;15.60;90.60;;;18.37;64.46;100770.16;4741226;30;20703;-62
2022/10/21 08:13:45;;;;;;;14.23;12.80;;;15.60;90.50;;;18.39;64.17;100773.41;4752437;30;20207;-60
2022/10/21 08:16:14;;;;;;;15.70;14.10;;;15.70;90.40;;;18.43;63.98;100769.25;4769158;30;20211;-61
2022/10/21 08:18:41;;;;;;;15.47;13.97;;;15.70;90.30;;;18.44;64.04;100765.56;4752018;30;20213;-60
2022/10/21 08:21:08;;;;;;;15.43;12.47;;;15.80;90.30;;;18.48;64.28;100765.94;4750041;30;20243;-60
2022/10/21 08:23:36;;;;;;;14.80;13.30;;;15.80;90.30;;;18.53;64.07;100755.44;4751914;30;20205;-61
2022/10/21 08:26:06;;;;;;;15.63;13.90;;;15.90;90.20;;;18.55;64.11;100756.00;4750921;30;20208;-61
2022/10/21 08:28:33;;;;;;;14.67;13.17;;;15.90;90.10;;;18.61;63.72;100747.91;4757773;30;20585;-60
2022/10/21 08:31:05;;;;;;;15.20;13.53;;;15.90;90.10;;;18.69;63.97;100752.94;4761161;30;20244;-60
2022/10/21 08:33:34;;;;;;;14.90;11.87;;;16.00;90.10;;;18.77;63.53;100747.28;4751461;30;20220;-62
2022/10/21 08:36:05;;;;;;;15.80;13.13;;;16.00;90.00;;;18.81;63.24;100742.31;4765893;30;20211;-62
2022/10/21 08:38:32;;;;;;;15.93;13.63;;;16.10;89.70;;;18.76;63.18;100752.84;4750371;30;20205;-59
2022/10/21 08:41:00;;;;;;;14.43;12.93;;;16.20;89.30;;;18.81;63.17;100761.78;4750502;30;20224;-61
2022/10/21 08:43:32;;;;;;;14.40;12.23;;;16.20;89.30;;;18.93;62.93;100759.97;4751397;30;20280;-64
2022/10/21 08:46:06;;;;;;;15.37;12.23;;;16.20;89.40;;;19.08;62.92;100756.06;4751247;30;20290;-61
2022/10/21 08:48:44;;;;;;;16.03;11.97;;;16.30;89.40;;;19.26;62.48;100758.63;4744460;30;20236;-61
2022/10/21 08:51:22;;;;;;;16.97;11.57;;;16.40;89.30;;;19.40;62.27;100755.53;4749592;30;20232;-62
2022/10/21 08:53:55;;;;;;;13.77;11.93;;;16.50;89.10;;;19.51;61.71;100757.41;4749070;30;20219;-61
2022/10/21 08:56:24;;;;;;;15.60;13.00;;;16.60;88.30;;;19.59;60.98;100758.91;4750010;30;20250;-61
2022/10/21 08:58:52;;;;;;;14.50;11.87;;;16.80;87.70;;;19.59;60.61;100749.03;4744199;30;20582;-63
2022/10/21 09:01:28;;;;;;;16.73;11.87;;;16.80;86.60;;;19.62;60.84;100752.28;4750803;30;20231;-62
2022/10/21 09:04:07;;;;;;;14.97;12.17;;;16.80;86.70;;;19.79;60.28;100754.00;4750925;30;20208;-61
2022/10/21 09:06:47;;;;;;;15.10;12.87;;;16.90;86.90;;;19.93;59.71;100746.53;4740546;30;20224;-59
2022/10/21 09:09:26;;;;;;;13.67;11.70;;;17.00;86.40;;;20.10;59.37;100753.59;4750603;30;20201;-62
2022/10/21 09:12:07;;;;;;;12.40;11.10;;;17.10;86.10;;;20.66;59.54;100760.03;4751885;30;20612;-61
2022/10/21 09:14:59;;;;;;;13.00;10.57;;;17.40;87.00;;;21.72;58.51;100756.44;4763110;30;20258;-62
2022/10/21 09:17:49;;;;;;;12.00;10.80;;;17.80;87.60;;;22.65;55.81;100748.25;4747839;30;20201;-61
2022/10/21 09:20:37;;;;;;;14.57;10.30;;;18.40;85.60;;;23.27;53.76;100745.81;4749661;30;20249;-60
2022/10/21 09:23:30;;;;;;;10.60;9.47;;;19.20;82.80;;;23.99;52.28;100746.78;4750831;30;20311;-60
2022/10/21 09:26:12;;;;;;;10.47;9.47;;;19.80;80.60;;;24.79;49.78;100748.16;4759991;30;20205;-61
2022/10/21 09:28:39;;;;;;;9.53;8.60;;;20.50;78.10;;;25.34;48.82;100744.66;4751283;30;20219;-62
2022/10/21 09:31:16;;;;;;;9.03;8.00;;;21.10;76.40;;;25.97;47.39;100743.97;4750411;30;20236;-62
2022/10/21 09:33:48;;;;;;;10.93;9.03;;;21.60;75.60;;;26.53;45.67;100736.41;4746226;30;20213;-62
2022/10/21 09:36:25;;;;;;;9.50;8.20;;;22.20;72.30;;;26.64;42.44;100732.56;4766612;30;20192;-62
2022/10/21 09:38:59;;;;;;;13.00;8.27;;;22.50;67.30;;;26.45;43.21;100728.91;4765044;30;20627;-60
2022/10/21 09:41:35;;;;;;;9.80;8.80;;;22.80;66.50;;;26.22;43.02;100726.88;4759050;30;20285;-63
2022/10/21 09:44:02;;;;;;;9.57;8.03;;;22.90;65.90;;;26.00;43.82;100731.81;4753792;30;20204;-62
2022/10/21 09:46:29;;;;;;;9.07;8.20;;;22.90;65.20;;;25.86;44.04;100730.81;4736507;30;20221;-62
2022/10/21 09:48:57;;;;;;;9.27;8.30;;;22.70;64.80;;;25.60;44.55;100731.97;4762345;30;20658;-62
2022/10/21 09:51:45;;;;;;;8.43;7.30;;;22.60;65.10;;;25.37;45.63;100728.72;4753378;30;20240;-62
2022/10/21 09:54:18;;;;;;;9.93;8.77;;;22.50;66.00;;;25.27;45.83;100726.03;4754440;30;20219;-63
2022/10/21 09:56:51;;;;;;;12.67;8.87;;;22.40;66.50;;;25.16;45.45;100732.53;4771513;30;20195;-59
2022/10/21 09:59:21;;;;;;;10.77;8.27;;;22.20;66.60;;;24.87;46.05;100734.16;4756330;30;20283;-62
2022/10/21 10:01:49;;;;;;;8.10;7.40;;;22.10;67.00;;;24.67;46.80;100734.13;4752936;30;20238;-62
2022/10/21 10:04:24;;;;;;;8.53;7.73;;;22.00;67.80;;;24.47;47.83;100728.69;4754439;30;20205;-63
2022/10/21 10:06:53;;;;;;;9.17;8.33;;;21.80;68.10;;;24.36;47.80;100727.06;4772035;30;20188;-61
2022/10/21 10:09:27;;;;;;;8.83;8.03;;;21.60;68.70;;;24.27;48.27;100717.88;4756576;30;20700;-63
2022/10/21 10:11:59;;;;;;;9.97;8.53;;;21.60;69.20;;;24.22;48.28;100727.53;4750802;30;20240;-62
2022/10/21 10:14:31;;;;;;;9.20;7.70;;;21.50;69.60;;;24.10;48.52;100718.88;4741662;30;20661;-60
2022/10/21 10:17:29;;;;;;;8.93;8.03;;;21.40;69.70;;;23.97;48.54;100718.53;4771642;30;20208;-61